sensor_id;sensor_type;location;lat;lon;timestamp;temperature;humidity
34406;DHT22;20658;45.630;8.886;2023-04-01T00:02:24;8.10;99.90
34406;DHT22;20658;45.630;8.886;2023-04-01T00:04:58;8.00;99.90
34406;DHT22;20658;45.630;8.886;2023-04-01T00:07:33;8.00;99.90
34406;DHT22;20658;45.630;8.886;2023-04-01T00:10:08;8.00;99.90
34406;DHT22;20658;45.630;8.886;2023-04-01T00:12:42;7.90;99.90
34406;DHT22;20658;45.630;8.886;2023-04-01T00:15:15;7.90;99.90
34406;DHT22;20658;45.630;8.886;2023-04-01T00:17:49;7.90;99.90
34406;DHT22;20658;45.630;8.886;2023-04-01T00:20:22;7.80;99.90
34406;DHT22;20658;45.630;8.886;2023-04-01T00:22:59;7.70;99.90
34406;DHT22;20658;45.630;8.886;2023-04-01T00:25:32;7.70;99.90
34406;DHT22;20658;45.630;8.886;2023-04-01T00:28:06;7.70;99.90
34406;DHT22;20658;45.630;8.886;2023-04-01T00:30:39;7.70;99.90
34406;DHT22;20658;45.630;8.886;2023-04-01T00:33:12;7.60;99.90
34406;DHT22;20658;45.630;8.886;2023-04-01T00:35:46;7.60;99.90
34406;DHT22;20658;45.630;8.886;2023-04-01T00:38:16;7.60;99.90
34406;DHT22;20658;45.630;8.886;2023-04-01T00:40:57;7.60;99.90
34406;DHT22;20658;45.630;8.886;2023-04-01T00:43:32;7.50;99.90
34406;DHT22;20658;45.630;8.886;2023-04-01T00:46:05;7.50;99.90
34406;DHT22;20658;45.630;8.886;2023-04-01T00:48:42;7.40;99.90
34406;DHT22;20658;45.630;8.886;2023-04-01T00:51:20;7.40;99.90
34406;DHT22;20658;45.630;8.886;2023-04-01T00:53:58;7.70;99.90
34406;DHT22;20658;45.630;8.886;2023-04-01T00:56:37;7.40;99.90
34406;DHT22;20658;45.630;8.886;2023-04-01T00:59:15;7.40;99.90
34406;DHT22;20658;45.630;8.886;2023-04-01T01:01:46;7.40;99.90
34406;DHT22;20658;45.630;8.886;2023-04-01T01:04:23;7.40;99.90
34406;DHT22;20658;45.630;8.886;2023-04-01T01:07:07;7.40;99.90
34406;DHT22;20658;45.630;8.886;2023-04-01T01:09:56;7.40;99.90
34406;DHT22;20658;45.630;8.886;2023-04-01T01:12:39;7.50;99.90
34406;DHT22;20658;45.630;8.886;2023-04-01T01:15:18;7.40;99.90
34406;DHT22;20658;45.630;8.886;2023-04-01T01:17:59;7.40;99.90
34406;DHT22;20658;45.630;8.886;2023-04-01T01:20:54;7.40;99.90
34406;DHT22;20658;45.630;8.886;2023-04-01T01:27:03;7.30;99.90
34406;DHT22;20658;45.630;8.886;2023-04-01T01:33:02;7.30;99.90
34406;DHT22;20658;45.630;8.886;2023-04-01T01:36:02;7.30;99.90
34406;DHT22;20658;45.630;8.886;2023-04-01T01:38:38;7.30;99.90
34406;DHT22;20658;45.630;8.886;2023-04-01T01:41:07;7.20;99.90
34406;DHT22;20658;45.630;8.886;2023-04-01T01:43:39;7.20;99.90
34406;DHT22;20658;45.630;8.886;2023-04-01T01:46:19;7.10;99.90
34406;DHT22;20658;45.630;8.886;2023-04-01T01:48:51;7.10;99.90
34406;DHT22;20658;45.630;8.886;2023-04-01T01:51:28;7.10;99.90
34406;DHT22;20658;45.630;8.886;2023-04-01T01:53:56;7.00;99.90
34406;DHT22;20658;45.630;8.886;2023-04-01T01:56:31;7.00;99.90
34406;DHT22;20658;45.630;8.886;2023-04-01T01:59:03;7.00;99.90
34406;DHT22;20658;45.630;8.886;2023-04-01T02:01:37;7.00;99.90
34406;DHT22;20658;45.630;8.886;2023-04-01T02:04:13;6.90;99.90
34406;DHT22;20658;45.630;8.886;2023-04-01T02:06:53;6.90;99.90
34406;DHT22;20658;45.630;8.886;2023-04-01T02:09:26;6.80;99.90
34406;DHT22;20658;45.630;8.886;2023-04-01T02:11:58;6.80;99.90
34406;DHT22;20658;45.630;8.886;2023-04-01T02:14:38;6.80;99.90
34406;DHT22;20658;45.630;8.886;2023-04-01T02:17:12;6.80;99.90
34406;DHT22;20658;45.630;8.886;2023-04-01T02:19:50;6.70;99.90
34406;DHT22;20658;45.630;8.886;2023-04-01T02:22:29;6.70;99.90
34406;DHT22;20658;45.630;8.886;2023-04-01T02:25:07;6.70;99.90
34406;DHT22;20658;45.630;8.886;2023-04-01T02:27:44;6.70;99.90
34406;DHT22;20658;45.630;8.886;2023-04-01T02:30:19;6.60;99.90
34406;DHT22;20658;45.630;8.886;2023-04-01T02:32:53;6.60;99.90
34406;DHT22;20658;45.630;8.886;2023-04-01T02:35:30;6.60;99.90
34406;DHT22;20658;45.630;8.886;2023-04-01T02:38:08;6.60;99.90
34406;DHT22;20658;45.630;8.886;2023-04-01T02:40:46;6.60;99.90
34406;DHT22;20658;45.630;8.886;2023-04-01T02:43:20;6.60;99.90
34406;DHT22;20658;45.630;8.886;2023-04-01T02:45:53;6.60;99.90
34406;DHT22;20658;45.630;8.886;2023-04-01T02:48:27;6.50;99.90
34406;DHT22;20658;45.630;8.886;2023-04-01T02:51:00;6.50;99.90
34406;DHT22;20658;45.630;8.886;2023-04-01T02:53:35;6.50;99.90
34406;DHT22;20658;45.630;8.886;2023-04-01T02:56:03;6.40;99.90
34406;DHT22;20658;45.630;8.886;2023-04-01T02:58:37;6.40;99.90
34406;DHT22;20658;45.630;8.886;2023-04-01T03:01:10;6.40;99.90
34406;DHT22;20658;45.630;8.886;2023-04-01T03:03:39;6.40;99.90
34406;DHT22;20658;45.630;8.886;2023-04-01T03:06:14;6.40;99.90
34406;DHT22;20658;45.630;8.886;2023-04-01T03:08:50;6.40;99.90
34406;DHT22;20658;45.630;8.886;2023-04-01T03:11:23;6.30;99.90
34406;DHT22;20658;45.630;8.886;2023-04-01T03:13:52;6.30;99.90
34406;DHT22;20658;45.630;8.886;2023-04-01T03:16:26;6.30;99.90
34406;DHT22;20658;45.630;8.886;2023-04-01T03:19:00;6.70;99.90
34406;DHT22;20658;45.630;8.886;2023-04-01T03:21:33;6.30;99.90
34406;DHT22;20658;45.630;8.886;2023-04-01T03:24:09;6.20;99.90
34406;DHT22;20658;45.630;8.886;2023-04-01T03:26:42;6.20;99.90
34406;DHT22;20658;45.630;8.886;2023-04-01T03:29:15;6.10;99.90
34406;DHT22;20658;45.630;8.886;2023-04-01T03:31:49;6.10;99.90
34406;DHT22;20658;45.630;8.886;2023-04-01T03:34:22;6.10;99.90
34406;DHT22;20658;45.630;8.886;2023-04-01T03:36:56;6.10;99.90
34406;DHT22;20658;45.630;8.886;2023-04-01T03:39:32;6.00;99.90
34406;DHT22;20658;45.630;8.886;2023-04-01T03:42:06;6.00;99.90
34406;DHT22;20658;45.630;8.886;2023-04-01T03:44:39;5.90;99.90
34406;DHT22;20658;45.630;8.886;2023-04-01T03:47:13;5.90;99.90
34406;DHT22;20658;45.630;8.886;2023-04-01T03:49:46;5.90;99.90
34406;DHT22;20658;45.630;8.886;2023-04-01T03:52:20;5.90;99.90
34406;DHT22;20658;45.630;8.886;2023-04-01T03:54:54;5.80;99.90
34406;DHT22;20658;45.630;8.886;2023-04-01T03:57:23;5.80;99.90
34406;DHT22;20658;45.630;8.886;2023-04-01T04:00:00;5.80;99.90
34406;DHT22;20658;45.630;8.886;2023-04-01T04:02:39;5.80;99.90
34406;DHT22;20658;45.630;8.886;2023-04-01T04:05:18;5.70;99.90
34406;DHT22;20658;45.630;8.886;2023-04-01T04:07:52;5.80;99.90
34406;DHT22;20658;45.630;8.886;2023-04-01T04:10:27;5.80;99.90
34406;DHT22;20658;45.630;8.886;2023-04-01T04:13:01;5.80;99.90
34406;DHT22;20658;45.630;8.886;2023-04-01T04:15:32;5.70;99.90
34406;DHT22;20658;45.630;8.886;2023-04-01T04:18:00;5.60;99.90
34406;DHT22;20658;45.630;8.886;2023-04-01T04:20:29;5.60;99.90
34406;DHT22;20658;45.630;8.886;2023-04-01T04:22:57;5.60;99.90
34406;DHT22;20658;45.630;8.886;2023-04-01T04:25:26;5.50;99.90
34406;DHT22;20658;45.630;8.886;2023-04-01T04:28:00;5.60;99.90
34406;DHT22;20658;45.630;8.886;2023-04-01T04:30:34;5.60;99.90
34406;DHT22;20658;45.630;8.886;2023-04-01T04:33:07;5.60;99.90
34406;DHT22;20658;45.630;8.886;2023-04-01T04:35:41;5.50;99.90
34406;DHT22;20658;45.630;8.886;2023-04-01T04:38:09;5.50;99.90
34406;DHT22;20658;45.630;8.886;2023-04-01T04:40:44;5.40;99.90
34406;DHT22;20658;45.630;8.886;2023-04-01T04:43:18;5.40;99.90
34406;DHT22;20658;45.630;8.886;2023-04-01T04:45:51;5.30;99.90
34406;DHT22;20658;45.630;8.886;2023-04-01T04:48:25;5.30;99.90
34406;DHT22;20658;45.630;8.886;2023-04-01T04:50:58;5.30;99.90
34406;DHT22;20658;45.630;8.886;2023-04-01T04:53:32;5.30;99.90
34406;DHT22;20658;45.630;8.886;2023-04-01T04:56:07;5.30;99.90
34406;DHT22;20658;45.630;8.886;2023-04-01T04:58:49;5.30;99.90
34406;DHT22;20658;45.630;8.886;2023-04-01T05:01:26;5.30;99.90
34406;DHT22;20658;45.630;8.886;2023-04-01T05:04:00;5.20;99.90
34406;DHT22;20658;45.630;8.886;2023-04-01T05:06:33;5.30;99.90
34406;DHT22;20658;45.630;8.886;2023-04-01T05:09:06;5.30;99.90
34406;DHT22;20658;45.630;8.886;2023-04-01T05:11:41;5.20;99.90
34406;DHT22;20658;45.630;8.886;2023-04-01T05:14:15;5.30;99.90
34406;DHT22;20658;45.630;8.886;2023-04-01T05:16:58;5.30;99.90
34406;DHT22;20658;45.630;8.886;2023-04-01T05:19:32;5.30;99.90
34406;DHT22;20658;45.630;8.886;2023-04-01T05:22:06;5.30;99.90
34406;DHT22;20658;45.630;8.886;2023-04-01T05:24:40;5.30;99.90
34406;DHT22;20658;45.630;8.886;2023-04-01T05:27:10;5.30;99.90
34406;DHT22;20658;45.630;8.886;2023-04-01T05:29:43;5.30;99.90
34406;DHT22;20658;45.630;8.886;2023-04-01T05:32:31;5.70;99.90
34406;DHT22;20658;45.630;8.886;2023-04-01T05:35:05;5.60;99.90
34406;DHT22;20658;45.630;8.886;2023-04-01T05:37:34;5.30;99.90
34406;DHT22;20658;45.630;8.886;2023-04-01T05:40:08;5.70;99.90
34406;DHT22;20658;45.630;8.886;2023-04-01T05:42:44;5.40;99.90
34406;DHT22;20658;45.630;8.886;2023-04-01T05:45:17;5.40;99.90
34406;DHT22;20658;45.630;8.886;2023-04-01T05:48:09;5.40;99.90
34406;DHT22;20658;45.630;8.886;2023-04-01T05:50:43;5.50;99.90
34406;DHT22;20658;45.630;8.886;2023-04-01T05:53:16;5.50;99.90
34406;DHT22;20658;45.630;8.886;2023-04-01T05:55:50;5.50;99.90
34406;DHT22;20658;45.630;8.886;2023-04-01T05:58:25;5.70;99.90
34406;DHT22;20658;45.630;8.886;2023-04-01T06:01:00;5.80;99.90
34406;DHT22;20658;45.630;8.886;2023-04-01T06:03:36;6.00;99.90
34406;DHT22;20658;45.630;8.886;2023-04-01T06:06:13;6.20;99.90
34406;DHT22;20658;45.630;8.886;2023-04-01T06:08:43;6.30;99.90
34406;DHT22;20658;45.630;8.886;2023-04-01T06:11:23;6.40;99.90
34406;DHT22;20658;45.630;8.886;2023-04-01T06:14:19;6.90;99.90
34406;DHT22;20658;45.630;8.886;2023-04-01T06:17:11;6.70;99.00
34406;DHT22;20658;45.630;8.886;2023-04-01T06:19:55;7.10;98.10
34406;DHT22;20658;45.630;8.886;2023-04-01T06:22:48;7.10;97.10
34406;DHT22;20658;45.630;8.886;2023-04-01T06:25:54;7.50;96.20
34406;DHT22;20658;45.630;8.886;2023-04-01T06:31:57;7.70;94.00
34406;DHT22;20658;45.630;8.886;2023-04-01T06:35:07;7.90;93.30
34406;DHT22;20658;45.630;8.886;2023-04-01T06:38:13;8.00;91.70
34406;DHT22;20658;45.630;8.886;2023-04-01T06:41:31;8.20;90.80
34406;DHT22;20658;45.630;8.886;2023-04-01T06:44:13;8.40;90.50
34406;DHT22;20658;45.630;8.886;2023-04-01T06:47:22;8.70;90.00
34406;DHT22;20658;45.630;8.886;2023-04-01T06:50:23;8.80;87.70
34406;DHT22;20658;45.630;8.886;2023-04-01T06:53:21;9.20;87.80
34406;DHT22;20658;45.630;8.886;2023-04-01T06:56:18;9.30;85.50
34406;DHT22;20658;45.630;8.886;2023-04-01T06:59:01;9.50;84.70
34406;DHT22;20658;45.630;8.886;2023-04-01T07:01:39;9.60;83.70
34406;DHT22;20658;45.630;8.886;2023-04-01T07:04:19;9.80;82.10
34406;DHT22;20658;45.630;8.886;2023-04-01T07:06:56;9.90;81.30
34406;DHT22;20658;45.630;8.886;2023-04-01T07:09:33;10.20;80.10
34406;DHT22;20658;45.630;8.886;2023-04-01T07:12:37;10.40;78.20
34406;DHT22;20658;45.630;8.886;2023-04-01T07:15:27;10.50;77.10
34406;DHT22;20658;45.630;8.886;2023-04-01T07:18:10;10.70;76.50
34406;DHT22;20658;45.630;8.886;2023-04-01T07:20:47;11.00;76.60
34406;DHT22;20658;45.630;8.886;2023-04-01T07:23:25;11.20;74.90
34406;DHT22;20658;45.630;8.886;2023-04-01T07:26:15;11.80;72.00
34406;DHT22;20658;45.630;8.886;2023-04-01T07:29:05;11.40;71.30
34406;DHT22;20658;45.630;8.886;2023-04-01T07:32:05;11.70;71.10
34406;DHT22;20658;45.630;8.886;2023-04-01T07:34:53;11.70;69.40
34406;DHT22;20658;45.630;8.886;2023-04-01T07:37:39;12.30;69.20
34406;DHT22;20658;45.630;8.886;2023-04-01T07:40:23;12.30;68.50
34406;DHT22;20658;45.630;8.886;2023-04-01T07:46:40;12.20;67.50
34406;DHT22;20658;45.630;8.886;2023-04-01T07:49:24;12.60;66.10
34406;DHT22;20658;45.630;8.886;2023-04-01T07:52:04;12.80;65.50
34406;DHT22;20658;45.630;8.886;2023-04-01T07:54:49;13.00;63.60
34406;DHT22;20658;45.630;8.886;2023-04-01T07:57:33;13.40;62.60
34406;DHT22;20658;45.630;8.886;2023-04-01T08:00:16;13.90;63.80
34406;DHT22;20658;45.630;8.886;2023-04-01T08:03:28;13.50;59.60
34406;DHT22;20658;45.630;8.886;2023-04-01T08:06:12;13.60;59.90
34406;DHT22;20658;45.630;8.886;2023-04-01T08:08:50;14.00;59.40
34406;DHT22;20658;45.630;8.886;2023-04-01T08:11:45;13.70;58.30
34406;DHT22;20658;45.630;8.886;2023-04-01T08:14:50;13.90;58.50
34406;DHT22;20658;45.630;8.886;2023-04-01T08:17:54;14.40;57.90
34406;DHT22;20658;45.630;8.886;2023-04-01T08:20:39;14.60;55.50
34406;DHT22;20658;45.630;8.886;2023-04-01T08:23:18;14.80;54.80
34406;DHT22;20658;45.630;8.886;2023-04-01T08:25:58;14.50;50.20
34406;DHT22;20658;45.630;8.886;2023-04-01T08:28:43;14.50;47.90
34406;DHT22;20658;45.630;8.886;2023-04-01T08:31:25;14.80;48.60
34406;DHT22;20658;45.630;8.886;2023-04-01T08:34:05;14.80;48.60
34406;DHT22;20658;45.630;8.886;2023-04-01T08:36:46;14.90;47.90
34406;DHT22;20658;45.630;8.886;2023-04-01T08:39:29;15.00;48.70
34406;DHT22;20658;45.630;8.886;2023-04-01T08:42:31;15.20;48.10
34406;DHT22;20658;45.630;8.886;2023-04-01T08:45:30;15.30;47.70
34406;DHT22;20658;45.630;8.886;2023-04-01T08:48:32;15.30;47.50
34406;DHT22;20658;45.630;8.886;2023-04-01T08:58:33;16.10;46.40
34406;DHT22;20658;45.630;8.886;2023-04-01T09:01:42;16.10;45.50
34406;DHT22;20658;45.630;8.886;2023-04-01T09:07:58;16.30;44.60
34406;DHT22;20658;45.630;8.886;2023-04-01T09:10:59;16.60;45.20
34406;DHT22;20658;45.630;8.886;2023-04-01T09:14:35;16.50;42.50
34406;DHT22;20658;45.630;8.886;2023-04-01T09:21:09;16.50;37.40
34406;DHT22;20658;45.630;8.886;2023-04-01T09:27:04;16.80;38.10
34406;DHT22;20658;45.630;8.886;2023-04-01T09:30:07;16.90;39.00
34406;DHT22;20658;45.630;8.886;2023-04-01T09:33:29;17.00;38.00
34406;DHT22;20658;45.630;8.886;2023-04-01T09:36:30;17.00;36.10
34406;DHT22;20658;45.630;8.886;2023-04-01T09:39:37;17.00;33.50
34406;DHT22;20658;45.630;8.886;2023-04-01T09:42:34;17.20;34.00
34406;DHT22;20658;45.630;8.886;2023-04-01T09:45:35;17.30;33.40
34406;DHT22;20658;45.630;8.886;2023-04-01T09:48:26;17.30;33.50
34406;DHT22;20658;45.630;8.886;2023-04-01T09:51:17;17.30;35.00
34406;DHT22;20658;45.630;8.886;2023-04-01T09:54:13;17.50;35.00
34406;DHT22;20658;45.630;8.886;2023-04-01T09:57:22;17.60;34.30
34406;DHT22;20658;45.630;8.886;2023-04-01T10:00:47;17.60;34.30
34406;DHT22;20658;45.630;8.886;2023-04-01T10:10:48;18.00;35.70
34406;DHT22;20658;45.630;8.886;2023-04-01T10:20:36;18.30;35.50
34406;DHT22;20658;45.630;8.886;2023-04-01T10:23:36;18.60;35.50
34406;DHT22;20658;45.630;8.886;2023-04-01T10:26:55;18.60;35.20
34406;DHT22;20658;45.630;8.886;2023-04-01T10:34:19;18.90;34.20
34406;DHT22;20658;45.630;8.886;2023-04-01T10:37:06;19.00;34.80
34406;DHT22;20658;45.630;8.886;2023-04-01T10:43:49;19.30;34.60
34406;DHT22;20658;45.630;8.886;2023-04-01T10:50:06;19.40;34.10
34406;DHT22;20658;45.630;8.886;2023-04-01T10:56:39;19.50;33.30
34406;DHT22;20658;45.630;8.886;2023-04-01T11:03:54;19.40;32.90
34406;DHT22;20658;45.630;8.886;2023-04-01T11:11:35;19.90;32.20
34406;DHT22;20658;45.630;8.886;2023-04-01T11:14:57;20.10;32.00
34406;DHT22;20658;45.630;8.886;2023-04-01T11:18:15;20.30;30.40
34406;DHT22;20658;45.630;8.886;2023-04-01T11:21:50;20.90;31.00
34406;DHT22;20658;45.630;8.886;2023-04-01T11:31:32;21.80;29.00
34406;DHT22;20658;45.630;8.886;2023-04-01T11:37:29;21.40;28.30
34406;DHT22;20658;45.630;8.886;2023-04-01T11:40:52;21.30;28.80
34406;DHT22;20658;45.630;8.886;2023-04-01T11:44:10;21.30;27.90
34406;DHT22;20658;45.630;8.886;2023-04-01T11:47:51;21.20;28.20
34406;DHT22;20658;45.630;8.886;2023-04-01T11:53:55;22.40;28.70
34406;DHT22;20658;45.630;8.886;2023-04-01T11:56:48;22.40;27.80
34406;DHT22;20658;45.630;8.886;2023-04-01T12:02:32;21.70;27.90
34406;DHT22;20658;45.630;8.886;2023-04-01T12:05:24;21.90;27.20
34406;DHT22;20658;45.630;8.886;2023-04-01T12:08:15;21.40;26.10
34406;DHT22;20658;45.630;8.886;2023-04-01T12:10:59;21.50;26.90
34406;DHT22;20658;45.630;8.886;2023-04-01T12:13:40;21.40;28.30
34406;DHT22;20658;45.630;8.886;2023-04-01T12:19:29;22.00;27.30
34406;DHT22;20658;45.630;8.886;2023-04-01T12:22:21;22.00;26.80
34406;DHT22;20658;45.630;8.886;2023-04-01T12:25:14;21.70;27.20
34406;DHT22;20658;45.630;8.886;2023-04-01T12:28:08;21.90;26.30
34406;DHT22;20658;45.630;8.886;2023-04-01T12:30:56;21.80;25.70
34406;DHT22;20658;45.630;8.886;2023-04-01T12:36:59;21.40;25.70
34406;DHT22;20658;45.630;8.886;2023-04-01T12:40:02;21.00;25.30
34406;DHT22;20658;45.630;8.886;2023-04-01T12:43:07;21.30;26.70
34406;DHT22;20658;45.630;8.886;2023-04-01T12:45:59;21.70;26.80
34406;DHT22;20658;45.630;8.886;2023-04-01T12:49:14;22.40;26.90
34406;DHT22;20658;45.630;8.886;2023-04-01T12:52:04;22.80;26.10
34406;DHT22;20658;45.630;8.886;2023-04-01T12:54:59;23.20;26.20
34406;DHT22;20658;45.630;8.886;2023-04-01T12:58:25;23.30;25.30
34406;DHT22;20658;45.630;8.886;2023-04-01T13:01:59;22.80;25.20
34406;DHT22;20658;45.630;8.886;2023-04-01T13:08:35;22.10;25.60
34406;DHT22;20658;45.630;8.886;2023-04-01T13:11:18;22.10;25.30
34406;DHT22;20658;45.630;8.886;2023-04-01T13:17:14;21.50;26.30
34406;DHT22;20658;45.630;8.886;2023-04-01T13:19:58;21.50;26.00
34406;DHT22;20658;45.630;8.886;2023-04-01T13:22:49;21.80;26.30
34406;DHT22;20658;45.630;8.886;2023-04-01T13:25:35;22.00;25.50
34406;DHT22;20658;45.630;8.886;2023-04-01T13:28:12;22.30;25.70
34406;DHT22;20658;45.630;8.886;2023-04-01T13:30:51;22.20;24.70
34406;DHT22;20658;45.630;8.886;2023-04-01T13:33:35;22.30;25.20
34406;DHT22;20658;45.630;8.886;2023-04-01T13:36:19;22.10;25.40
34406;DHT22;20658;45.630;8.886;2023-04-01T13:39:12;22.20;25.40
34406;DHT22;20658;45.630;8.886;2023-04-01T13:42:00;22.10;25.30
34406;DHT22;20658;45.630;8.886;2023-04-01T13:44:46;21.70;25.30
34406;DHT22;20658;45.630;8.886;2023-04-01T13:47:47;21.80;25.20
34406;DHT22;20658;45.630;8.886;2023-04-01T13:53:59;21.60;25.30
34406;DHT22;20658;45.630;8.886;2023-04-01T13:56:50;21.90;25.20
34406;DHT22;20658;45.630;8.886;2023-04-01T13:59:52;22.20;24.70
34406;DHT22;20658;45.630;8.886;2023-04-01T14:02:54;22.10;24.50
34406;DHT22;20658;45.630;8.886;2023-04-01T14:06:05;22.30;23.60
34406;DHT22;20658;45.630;8.886;2023-04-01T14:09:11;22.30;23.10
34406;DHT22;20658;45.630;8.886;2023-04-01T14:12:00;22.20;24.10
34406;DHT22;20658;45.630;8.886;2023-04-01T14:14:50;22.50;23.80
34406;DHT22;20658;45.630;8.886;2023-04-01T14:17:42;22.70;23.80
34406;DHT22;20658;45.630;8.886;2023-04-01T14:20:29;22.70;24.10
34406;DHT22;20658;45.630;8.886;2023-04-01T14:23:30;22.50;24.10
34406;DHT22;20658;45.630;8.886;2023-04-01T14:26:23;21.80;24.30
34406;DHT22;20658;45.630;8.886;2023-04-01T14:29:18;21.70;24.30
34406;DHT22;20658;45.630;8.886;2023-04-01T14:32:02;22.10;24.10
34406;DHT22;20658;45.630;8.886;2023-04-01T14:34:53;22.30;24.10
34406;DHT22;20658;45.630;8.886;2023-04-01T14:37:48;22.00;24.00
34406;DHT22;20658;45.630;8.886;2023-04-01T14:40:27;22.30;24.30
34406;DHT22;20658;45.630;8.886;2023-04-01T14:43:16;22.60;24.20
34406;DHT22;20658;45.630;8.886;2023-04-01T14:46:28;22.50;23.70
34406;DHT22;20658;45.630;8.886;2023-04-01T14:49:20;22.40;23.90
34406;DHT22;20658;45.630;8.886;2023-04-01T14:52:10;22.50;24.10
34406;DHT22;20658;45.630;8.886;2023-04-01T14:54:42;22.60;23.10
34406;DHT22;20658;45.630;8.886;2023-04-01T14:57:23;22.10;23.90
34406;DHT22;20658;45.630;8.886;2023-04-01T15:00:00;21.70;23.80
34406;DHT22;20658;45.630;8.886;2023-04-01T15:02:51;21.90;24.30
34406;DHT22;20658;45.630;8.886;2023-04-01T15:05:42;22.30;24.20
34406;DHT22;20658;45.630;8.886;2023-04-01T15:08:23;22.70;24.10
34406;DHT22;20658;45.630;8.886;2023-04-01T15:11:22;22.80;23.70
34406;DHT22;20658;45.630;8.886;2023-04-01T15:14:16;22.50;23.30
34406;DHT22;20658;45.630;8.886;2023-04-01T15:17:02;22.10;23.80
34406;DHT22;20658;45.630;8.886;2023-04-01T15:20:02;21.90;23.80
34406;DHT22;20658;45.630;8.886;2023-04-01T15:22:58;21.70;24.00
34406;DHT22;20658;45.630;8.886;2023-04-01T15:28:40;20.70;24.70
34406;DHT22;20658;45.630;8.886;2023-04-01T15:31:20;20.70;25.00
34406;DHT22;20658;45.630;8.886;2023-04-01T15:37:12;20.60;25.40
34406;DHT22;20658;45.630;8.886;2023-04-01T15:39:56;20.60;25.60
34406;DHT22;20658;45.630;8.886;2023-04-01T15:42:48;20.90;25.60
34406;DHT22;20658;45.630;8.886;2023-04-01T15:45:43;20.90;25.20
34406;DHT22;20658;45.630;8.886;2023-04-01T15:48:40;21.00;25.10
34406;DHT22;20658;45.630;8.886;2023-04-01T15:51:37;20.90;25.30
34406;DHT22;20658;45.630;8.886;2023-04-01T15:54:27;20.90;25.20
34406;DHT22;20658;45.630;8.886;2023-04-01T15:57:14;20.80;25.80
34406;DHT22;20658;45.630;8.886;2023-04-01T16:00:09;20.90;25.40
34406;DHT22;20658;45.630;8.886;2023-04-01T16:03:19;20.90;25.50
34406;DHT22;20658;45.630;8.886;2023-04-01T16:09:13;21.00;24.80
34406;DHT22;20658;45.630;8.886;2023-04-01T16:12:07;21.00;25.20
34406;DHT22;20658;45.630;8.886;2023-04-01T16:14:53;21.00;24.80
34406;DHT22;20658;45.630;8.886;2023-04-01T16:17:39;21.00;24.90
34406;DHT22;20658;45.630;8.886;2023-04-01T16:20:25;21.20;24.90
34406;DHT22;20658;45.630;8.886;2023-04-01T16:23:02;21.10;25.30
34406;DHT22;20658;45.630;8.886;2023-04-01T16:25:40;21.10;25.30
34406;DHT22;20658;45.630;8.886;2023-04-01T16:28:23;21.00;25.30
34406;DHT22;20658;45.630;8.886;2023-04-01T16:31:03;20.70;25.30
34406;DHT22;20658;45.630;8.886;2023-04-01T16:33:45;20.50;25.80
34406;DHT22;20658;45.630;8.886;2023-04-01T16:36:26;20.30;26.20
34406;DHT22;20658;45.630;8.886;2023-04-01T16:39:25;20.10;26.70
34406;DHT22;20658;45.630;8.886;2023-04-01T16:42:16;19.90;27.00
34406;DHT22;20658;45.630;8.886;2023-04-01T16:45:00;19.70;27.40
34406;DHT22;20658;45.630;8.886;2023-04-01T16:47:45;19.50;27.40
34406;DHT22;20658;45.630;8.886;2023-04-01T16:50:21;19.40;27.20
34406;DHT22;20658;45.630;8.886;2023-04-01T16:53:09;19.20;27.20
34406;DHT22;20658;45.630;8.886;2023-04-01T16:55:50;19.20;27.60
34406;DHT22;20658;45.630;8.886;2023-04-01T16:58:26;19.10;27.50
34406;DHT22;20658;45.630;8.886;2023-04-01T17:01:03;19.10;27.80
34406;DHT22;20658;45.630;8.886;2023-04-01T17:03:40;19.30;27.30
34406;DHT22;20658;45.630;8.886;2023-04-01T17:06:25;19.50;27.40
34406;DHT22;20658;45.630;8.886;2023-04-01T17:09:29;19.70;27.50
34406;DHT22;20658;45.630;8.886;2023-04-01T17:12:19;19.80;26.90
34406;DHT22;20658;45.630;8.886;2023-04-01T17:15:05;19.40;27.30
34406;DHT22;20658;45.630;8.886;2023-04-01T17:17:49;19.30;27.70
34406;DHT22;20658;45.630;8.886;2023-04-01T17:20:38;19.00;28.10
34406;DHT22;20658;45.630;8.886;2023-04-01T17:23:14;18.80;28.30
34406;DHT22;20658;45.630;8.886;2023-04-01T17:26:06;18.70;28.50
34406;DHT22;20658;45.630;8.886;2023-04-01T17:28:50;18.60;28.90
34406;DHT22;20658;45.630;8.886;2023-04-01T17:31:41;18.60;28.90
34406;DHT22;20658;45.630;8.886;2023-04-01T17:34:42;18.50;28.60
34406;DHT22;20658;45.630;8.886;2023-04-01T17:37:30;18.40;28.90
34406;DHT22;20658;45.630;8.886;2023-04-01T17:40:26;18.30;29.30
34406;DHT22;20658;45.630;8.886;2023-04-01T17:43:12;18.10;28.90
34406;DHT22;20658;45.630;8.886;2023-04-01T17:45:54;17.90;29.50
34406;DHT22;20658;45.630;8.886;2023-04-01T17:48:38;17.70;29.50
34406;DHT22;20658;45.630;8.886;2023-04-01T17:51:23;17.60;30.30
34406;DHT22;20658;45.630;8.886;2023-04-01T17:54:06;17.50;30.60
34406;DHT22;20658;45.630;8.886;2023-04-01T17:56:52;17.30;30.80
34406;DHT22;20658;45.630;8.886;2023-04-01T17:59:37;17.20;31.00
34406;DHT22;20658;45.630;8.886;2023-04-01T18:02:21;17.40;30.90
34406;DHT22;20658;45.630;8.886;2023-04-01T18:05:20;17.20;30.80
34406;DHT22;20658;45.630;8.886;2023-04-01T18:08:11;16.90;31.00
34406;DHT22;20658;45.630;8.886;2023-04-01T18:10:56;16.90;31.40
34406;DHT22;20658;45.630;8.886;2023-04-01T18:13:52;16.80;31.50
34406;DHT22;20658;45.630;8.886;2023-04-01T18:16:55;16.70;31.50
34406;DHT22;20658;45.630;8.886;2023-04-01T18:19:59;16.60;31.40
34406;DHT22;20658;45.630;8.886;2023-04-01T18:22:42;16.50;31.90
34406;DHT22;20658;45.630;8.886;2023-04-01T18:25:22;16.50;32.20
34406;DHT22;20658;45.630;8.886;2023-04-01T18:28:16;16.40;32.30
34406;DHT22;20658;45.630;8.886;2023-04-01T18:30:52;16.60;32.80
34406;DHT22;20658;45.630;8.886;2023-04-01T18:33:34;16.20;32.70
34406;DHT22;20658;45.630;8.886;2023-04-01T18:36:19;16.20;32.90
34406;DHT22;20658;45.630;8.886;2023-04-01T18:39:00;16.10;33.10
34406;DHT22;20658;45.630;8.886;2023-04-01T18:41:42;15.80;33.00
34406;DHT22;20658;45.630;8.886;2023-04-01T18:44:29;15.90;33.50
34406;DHT22;20658;45.630;8.886;2023-04-01T18:47:16;15.70;33.60
34406;DHT22;20658;45.630;8.886;2023-04-01T18:50:02;15.90;33.80
34406;DHT22;20658;45.630;8.886;2023-04-01T18:52:42;15.90;33.80
34406;DHT22;20658;45.630;8.886;2023-04-01T18:55:40;15.50;33.60
34406;DHT22;20658;45.630;8.886;2023-04-01T18:58:33;15.40;33.90
34406;DHT22;20658;45.630;8.886;2023-04-01T19:01:22;15.40;34.00
34406;DHT22;20658;45.630;8.886;2023-04-01T19:04:17;15.30;34.30
34406;DHT22;20658;45.630;8.886;2023-04-01T19:06:56;15.20;34.30
34406;DHT22;20658;45.630;8.886;2023-04-01T19:09:31;15.10;34.40
34406;DHT22;20658;45.630;8.886;2023-04-01T19:12:24;15.10;34.70
34406;DHT22;20658;45.630;8.886;2023-04-01T19:15:14;15.00;34.90
34406;DHT22;20658;45.630;8.886;2023-04-01T19:18:23;14.90;35.20
34406;DHT22;20658;45.630;8.886;2023-04-01T19:21:10;14.80;35.40
34406;DHT22;20658;45.630;8.886;2023-04-01T19:24:07;14.70;35.60
34406;DHT22;20658;45.630;8.886;2023-04-01T19:26:59;14.60;35.70